Time;durP1;ratioP1;P1;durP2;ratioP2;P2;SDS_P1;SDS_P2;PMS_P1;PMS_P2;Temp;Humidity;BMP_temperature;BMP_pressure;BME280_temperature;BME280_humidity;BME280_pressure;Samples;Min_cycle;Max_cycle;Signal;HPM_P1;HPM_P2
2022/11/25 06:28:36;;;;;;;29.13;19.15;;;;;;;;;;5906352;23;20046;-96
2022/11/25 06:38:51;;;;;;;39.30;19.17;;;;;;;;;;6097165;23;20039;-94
2022/11/25 06:41:22;;;;;;;30.13;18.98;;;;;;;;;;5013740;28;20052;-96
2022/11/25 06:43:50;;;;;;;36.20;21.00;;;;;;;;;;5015256;28;20033;-96
2022/11/25 06:46:21;;;;;;;34.10;21.05;;;;;;;;;;5015195;28;20072;-94
2022/11/25 06:48:47;;;;;;;30.20;19.67;;;;;;;;;;5014485;28;20030;-94
2022/11/25 06:51:17;;;;;;;33.95;20.95;;;;;;;;;;5013112;28;20034;-94
2022/11/25 06:57:23;;;;;;;36.10;21.73;;;;;;;;;;5015314;28;20075;-93
2022/11/25 07:00:01;;;;;;;37.47;21.73;;;;;;;;;;4997571;28;20032;-93
2022/11/25 07:02:32;;;;;;;40.58;23.38;;;;;;;;;;4997265;28;20029;-94
2022/11/25 07:05:00;;;;;;;40.55;22.48;;;;;;;;;;4997524;28;20022;-93
2022/11/25 07:07:27;;;;;;;33.10;20.08;;;;;;;;;;4997578;28;20026;-93
2022/11/25 07:10:05;;;;;;;43.10;24.45;;;;;;;;;;4997295;28;20022;-93
2022/11/25 07:12:32;;;;;;;35.85;23.20;;;;;;;;;;4997738;28;20045;-94
2022/11/25 07:15:33;;;;;;;43.45;27.80;;;;;;;;;;4998009;28;20030;-95
2022/11/25 07:18:33;;;;;;;43.65;29.50;;;;;;;;;;4965652;28;20042;-96
2022/11/25 07:21:08;;;;;;;43.40;28.58;;;;;;;;;;4972667;28;20501;-93
2022/11/25 07:23:37;;;;;;;42.13;29.00;;;;;;;;;;4997272;28;20030;-94
2022/11/25 07:26:03;;;;;;;36.20;26.55;;;;;;;;;;4997498;28;20022;-94
2022/11/25 07:28:29;;;;;;;38.08;27.52;;;;;;;;;;4997541;28;20022;-94
2022/11/25 07:30:55;;;;;;;36.53;27.10;;;;;;;;;;4997268;28;20034;-94
2022/11/25 07:33:37;;;;;;;;;;;;;;;;;;;;;
2022/11/25 07:36:08;;;;;;;34.08;24.42;;;;;;;;;;5015617;28;20371;-96
2022/11/25 07:38:34;;;;;;;27.05;21.48;;;;;;;;;;5006525;28;20037;-91
2022/11/25 07:41:14;;;;;;;31.92;22.98;;;;;;;;;;5017377;28;20026;-91
2022/11/25 07:43:54;;;;;;;25.02;19.08;;;;;;;;;;5007557;28;20026;-95
2022/11/25 07:46:25;;;;;;;26.90;20.95;;;;;;;;;;4983675;28;20034;-92
2022/11/25 07:49:17;;;;;;;27.15;21.30;;;;;;;;;;4983573;28;20045;-95
2022/11/25 07:51:46;;;;;;;20.67;18.05;;;;;;;;;;4977005;28;20046;-94
2022/11/25 07:54:25;;;;;;;;;;;;;;;;;;;;;
2022/11/25 07:59:52;;;;;;;20.67;18.25;;;;;;;;;;4982629;28;20054;-93
2022/11/25 08:02:18;;;;;;;23.65;17.70;;;;;;;;;;4981508;28;20117;-95
2022/11/25 08:04:47;;;;;;;22.30;18.38;;;;;;;;;;4980886;28;20562;-95
2022/11/25 08:07:13;;;;;;;18.33;14.85;;;;;;;;;;4981471;28;20081;-94
2022/11/25 08:09:40;;;;;;;17.95;15.85;;;;;;;;;;4981378;28;20026;-93
2022/11/25 08:12:06;;;;;;;22.77;18.48;;;;;;;;;;4981106;28;20130;-94
2022/11/25 08:15:10;;;;;;;19.88;17.85;;;;;;;;;;4981367;28;20054;-96
2022/11/25 08:17:36;;;;;;;;;;;;;;;;;;4959222;28;20039;-95
2022/11/25 08:20:05;;;;;;;22.17;19.88;;;;;;;;;;5014270;28;19913;-95
2022/11/25 16:46:37;;;;;;;41.58;25.38;;;;;;;;;;5048120;23;20075;-86
2022/11/25 16:49:11;;;;;;;43.22;25.83;;;;;;;;;;5000504;28;20443;-86
2022/11/25 16:51:37;;;;;;;46.20;26.35;;;;;;;;;;5018178;28;20187;-87
2022/11/25 16:54:03;;;;;;;44.00;25.42;;;;;;;;;;5018347;28;20037;-86
2022/11/25 16:56:29;;;;;;;48.38;25.42;;;;;;;;;;5036162;28;20481;-84
2022/11/25 16:58:57;;;;;;;44.97;25.30;;;;;;;;;;5036171;28;20466;-84
2022/11/25 17:01:25;;;;;;;47.72;25.25;;;;;;;;;;5011055;28;20088;-83
2022/11/25 17:03:51;;;;;;;43.80;26.63;;;;;;;;;;5016565;28;20033;-83
2022/11/25 17:06:18;;;;;;;45.63;26.10;;;;;;;;;;5035232;28;20022;-86
2022/11/25 17:08:45;;;;;;;44.22;24.02;;;;;;;;;;5035610;28;20021;-85
2022/11/25 17:11:17;;;;;;;44.08;23.88;;;;;;;;;;5034100;28;20085;-84
2022/11/25 17:13:44;;;;;;;44.58;25.88;;;;;;;;;;5015583;28;20076;-84
2022/11/25 17:16:14;;;;;;;47.25;26.15;;;;;;;;;;4998623;28;20030;-84
2022/11/25 17:18:40;;;;;;;42.80;25.02;;;;;;;;;;5016187;28;20022;-85
2022/11/25 17:21:06;;;;;;;40.25;25.23;;;;;;;;;;5009317;28;20124;-85
2022/11/25 17:23:32;;;;;;;40.50;24.25;;;;;;;;;;4998924;28;20079;-85
2022/11/25 17:25:58;;;;;;;49.45;27.27;;;;;;;;;;5015907;28;20069;-85
2022/11/25 17:28:24;;;;;;;49.88;26.95;;;;;;;;;;4998591;28;20030;-85
2022/11/25 17:30:50;;;;;;;44.03;25.08;;;;;;;;;;5016046;28;20128;-86
2022/11/25 17:33:18;;;;;;;41.95;24.73;;;;;;;;;;5003295;28;20467;-86
2022/11/25 17:35:45;;;;;;;44.13;25.73;;;;;;;;;;5041395;28;20112;-84
2022/11/25 17:38:12;;;;;;;45.72;26.63;;;;;;;;;;5042645;28;20060;-85
2022/11/25 17:40:43;;;;;;;42.95;25.70;;;;;;;;;;5038093;28;20049;-86
2022/11/25 17:43:16;;;;;;;53.03;29.85;;;;;;;;;;5036634;28;20025;-84
2022/11/25 17:45:42;;;;;;;56.03;29.38;;;;;;;;;;5040622;28;20040;-84
2022/11/25 17:48:10;;;;;;;52.90;31.35;;;;;;;;;;5046061;28;20087;-83
2022/11/25 17:50:36;;;;;;;79.25;41.90;;;;;;;;;;5045554;28;20473;-87
2022/11/25 17:53:02;;;;;;;120.45;61.08;;;;;;;;;;5019547;28;20087;-85
2022/11/25 17:55:28;;;;;;;129.52;66.28;;;;;;;;;;5024627;28;20025;-89
2022/11/25 17:57:54;;;;;;;109.40;56.33;;;;;;;;;;5038186;28;20091;-86
2022/11/25 18:00:21;;;;;;;59.35;35.28;;;;;;;;;;5037466;28;20447;-89
2022/11/25 18:02:48;;;;;;;47.58;28.75;;;;;;;;;;5037809;28;20051;-90
2022/11/25 18:05:19;;;;;;;68.78;38.00;;;;;;;;;;5038257;28;20025;-88
2022/11/25 18:07:45;;;;;;;102.55;52.35;;;;;;;;;;5014149;28;20021;-87
2022/11/25 18:10:16;;;;;;;88.32;47.30;;;;;;;;;;5007383;28;20386;-89
2022/11/25 18:12:42;;;;;;;75.20;43.88;;;;;;;;;;5015382;28;20040;-90
2022/11/25 18:15:14;;;;;;;80.78;45.88;;;;;;;;;;5016700;28;20030;-84
2022/11/25 18:17:40;;;;;;;77.57;44.72;;;;;;;;;;5011230;28;20482;-90
2022/11/25 18:20:17;;;;;;;82.20;45.65;;;;;;;;;;5017651;28;20433;-88
2022/11/25 18:22:44;;;;;;;74.43;40.90;;;;;;;;;;5017515;28;20029;-89
2022/11/25 18:25:14;;;;;;;68.00;38.80;;;;;;;;;;5035027;28;20030;-87
2022/11/25 18:27:41;;;;;;;66.25;35.92;;;;;;;;;;5017172;28;20029;-87
2022/11/25 18:30:14;;;;;;;61.63;36.38;;;;;;;;;;5012419;28;20469;-86
2022/11/25 18:32:40;;;;;;;72.60;38.97;;;;;;;;;;4997876;28;20042;-89
2022/11/25 18:35:15;;;;;;;99.80;52.10;;;;;;;;;;4997711;28;20038;-90
2022/11/25 18:37:42;;;;;;;119.03;59.70;;;;;;;;;;5017630;28;20037;-91
2022/11/25 18:40:08;;;;;;;117.15;60.83;;;;;;;;;;4998370;28;20022;-91
2022/11/25 18:42:34;;;;;;;109.93;60.88;;;;;;;;;;4998456;28;20041;-91
2022/11/25 18:45:00;;;;;;;88.28;48.50;;;;;;;;;;4998052;28;20030;-89
2022/11/25 18:47:26;;;;;;;85.28;45.42;;;;;;;;;;4997479;28;20053;-89
2022/11/25 18:49:54;;;;;;;91.05;49.25;;;;;;;;;;4999562;28;20062;-91
2022/11/25 18:52:20;;;;;;;131.32;69.75;;;;;;;;;;5015429;28;20041;-92
2022/11/25 18:54:49;;;;;;;111.50;59.35;;;;;;;;;;5017861;28;20160;-91
2022/11/25 18:57:16;;;;;;;122.90;66.78;;;;;;;;;;5017698;28;20033;-91
2022/11/25 18:59:42;;;;;;;113.22;61.28;;;;;;;;;;5016941;28;20026;-91
2022/11/25 19:02:14;;;;;;;104.05;57.33;;;;;;;;;;5017382;28;20029;-91
2022/11/25 19:04:40;;;;;;;114.35;60.58;;;;;;;;;;5017533;28;20104;-88
2022/11/25 19:07:06;;;;;;;96.13;51.55;;;;;;;;;;5008789;28;20041;-88
2022/11/25 19:09:33;;;;;;;102.75;56.17;;;;;;;;;;5017582;28;20118;-91
2022/11/25 19:11:59;;;;;;;91.45;50.08;;;;;;;;;;5016901;28;20064;-91
2022/11/25 19:14:29;;;;;;;94.35;50.65;;;;;;;;;;5016727;28;20508;-89
2022/11/25 19:16:56;;;;;;;92.18;50.95;;;;;;;;;;5016656;28;20049;-90
2022/11/25 19:19:22;;;;;;;100.15;54.90;;;;;;;;;;5017395;28;20076;-94
2022/11/25 19:21:48;;;;;;;93.85;52.88;;;;;;;;;;5017590;28;20083;-93
2022/11/25 19:24:15;;;;;;;83.05;45.97;;;;;;;;;;5017246;28;20028;-94
2022/11/25 19:26:49;;;;;;;76.00;44.70;;;;;;;;;;5016656;28;20078;-90
2022/11/25 19:29:44;;;;;;;90.70;50.00;;;;;;;;;;5009503;28;20037;-91
2022/11/25 19:32:21;;;;;;;91.93;49.90;;;;;;;;;;4997179;28;20034;-90
2022/11/25 19:34:59;;;;;;;82.95;47.15;;;;;;;;;;5008359;28;20030;-91
2022/11/25 19:37:43;;;;;;;67.70;39.33;;;;;;;;;;5013428;28;20029;-91
2022/11/25 19:40:39;;;;;;;65.70;36.72;;;;;;;;;;5015857;28;20401;-91
2022/11/25 19:43:05;;;;;;;76.72;42.22;;;;;;;;;;5017030;28;20036;-91
2022/11/25 19:45:34;;;;;;;67.78;37.67;;;;;;;;;;5017312;28;20092;-91
2022/11/25 19:50:58;;;;;;;53.67;33.78;;;;;;;;;;5034326;28;20045;-90
2022/11/25 19:53:25;;;;;;;56.35;34.08;;;;;;;;;;4997517;28;20125;-91
2022/11/25 19:55:51;;;;;;;63.90;39.45;;;;;;;;;;4996798;28;20029;-91
2022/11/25 19:58:26;;;;;;;68.28;39.40;;;;;;;;;;4997017;28;20087;-92
2022/11/25 20:01:01;;;;;;;67.63;37.42;;;;;;;;;;4996993;28;20467;-92
2022/11/25 20:03:34;;;;;;;58.80;33.40;;;;;;;;;;4997325;28;20026;-93
2022/11/25 20:06:00;;;;;;;71.88;36.97;;;;;;;;;;4997635;28;20065;-91
2022/11/25 20:08:29;;;;;;;72.15;36.58;;;;;;;;;;5014427;28;20026;-91
2022/11/25 20:10:56;;;;;;;70.18;35.28;;;;;;;;;;4996959;28;20040;-91
2022/11/25 20:13:25;;;;;;;66.65;35.25;;;;;;;;;;4997139;28;20030;-91
2022/11/25 20:15:52;;;;;;;92.03;43.20;;;;;;;;;;4997362;28;20072;-90
2022/11/25 20:18:20;;;;;;;70.30;37.45;;;;;;;;;;4996838;28;20038;-94
2022/11/25 20:20:48;;;;;;;109.90;48.40;;;;;;;;;;4997563;28;20028;-93
2022/11/25 20:23:15;;;;;;;96.82;43.03;;;;;;;;;;4997634;28;20061;-93
2022/11/25 20:25:46;;;;;;;83.68;41.88;;;;;;;;;;5001999;28;20049;-90
2022/11/25 20:28:20;;;;;;;80.97;39.35;;;;;;;;;;5024276;28;20034;-93
2022/11/25 20:30:46;;;;;;;78.63;42.35;;;;;;;;;;5016293;28;20025;-93
2022/11/25 20:33:13;;;;;;;79.03;43.90;;;;;;;;;;5017141;28;20092;-91
2022/11/25 20:35:41;;;;;;;72.78;41.70;;;;;;;;;;5016545;28;20152;-92
2022/11/25 20:38:14;;;;;;;69.05;39.95;;;;;;;;;;5016046;28;20054;-92
2022/11/25 20:40:41;;;;;;;59.75;35.78;;;;;;;;;;5016320;28;20025;-92
2022/11/25 20:43:26;;;;;;;80.78;38.65;;;;;;;;;;5017127;28;20124;-92
2022/11/25 20:45:52;;;;;;;81.85;38.33;;;;;;;;;;5015897;28;20183;-92
2022/11/25 20:48:18;;;;;;;77.40;36.50;;;;;;;;;;5016581;28;20029;-91
2022/11/25 20:50:45;;;;;;;67.18;35.67;;;;;;;;;;5019612;28;20029;-93
2022/11/25 20:53:16;;;;;;;89.45;41.80;;;;;;;;;;5019964;28;20029;-92
2022/11/25 20:55:42;;;;;;;84.03;39.65;;;;;;;;;;5019716;28;20029;-91
2022/11/25 20:58:19;;;;;;;61.67;35.85;;;;;;;;;;5019743;28;20087;-91
2022/11/25 21:00:45;;;;;;;62.35;33.30;;;;;;;;;;5019570;28;20028;-91
2022/11/25 21:03:11;;;;;;;71.22;36.03;;;;;;;;;;5020454;28;20025;-91
2022/11/25 21:05:38;;;;;;;75.60;37.13;;;;;;;;;;5020411;28;20025;-90
2022/11/25 21:08:09;;;;;;;79.43;36.72;;;;;;;;;;5029028;28;20060;-90
2022/11/25 21:10:35;;;;;;;73.90;34.85;;;;;;;;;;5021871;28;20428;-91
2022/11/25 21:13:08;;;;;;;83.80;37.15;;;;;;;;;;5019372;28;20030;-93
2022/11/25 21:15:34;;;;;;;77.50;36.95;;;;;;;;;;5020148;28;20026;-92
2022/11/25 21:18:00;;;;;;;64.60;34.42;;;;;;;;;;5019211;28;20179;-91
2022/11/25 21:20:26;;;;;;;66.70;34.80;;;;;;;;;;5019235;28;20025;-93
2022/11/25 21:22:57;;;;;;;70.47;34.00;;;;;;;;;;5019372;28;20557;-93
2022/11/25 21:25:23;;;;;;;69.22;35.53;;;;;;;;;;5018574;28;20076;-89
2022/11/25 21:27:51;;;;;;;69.90;35.63;;;;;;;;;;5018696;28;20373;-89
2022/11/25 21:30:21;;;;;;;59.10;33.05;;;;;;;;;;5018775;28;20022;-90
2022/11/25 21:32:48;;;;;;;56.05;31.80;;;;;;;;;;5018423;28;20068;-90
2022/11/25 21:35:14;;;;;;;63.33;31.92;;;;;;;;;;5018924;28;20029;-91
2022/11/25 21:37:41;;;;;;;58.25;32.97;;;;;;;;;;5018542;28;20088;-90
2022/11/25 21:40:08;;;;;;;52.88;30.73;;;;;;;;;;5018792;28;20029;-89
2022/11/25 21:42:36;;;;;;;55.47;30.67;;;;;;;;;;5036101;28;20030;-90
2022/11/25 21:45:02;;;;;;;51.17;29.80;;;;;;;;;;5019741;28;20033;-90
2022/11/25 21:47:29;;;;;;;54.00;29.95;;;;;;;;;;5018542;28;20548;-90
2022/11/25 21:49:55;;;;;;;58.53;31.70;;;;;;;;;;5018469;28;20547;-93
2022/11/25 21:52:21;;;;;;;54.17;31.20;;;;;;;;;;5018709;28;20446;-91
2022/11/25 21:54:47;;;;;;;62.05;33.33;;;;;;;;;;5018731;28;20099;-89
2022/11/25 21:57:17;;;;;;;64.45;36.08;;;;;;;;;;5036222;28;20029;-90
2022/11/25 21:59:46;;;;;;;81.22;43.17;;;;;;;;;;5018646;28;20049;-90
2022/11/25 22:02:17;;;;;;;59.72;34.35;;;;;;;;;;5017703;28;20076;-91
2022/11/25 22:04:43;;;;;;;65.22;33.03;;;;;;;;;;5018014;28;20040;-91
2022/11/25 22:07:09;;;;;;;53.67;30.52;;;;;;;;;;5017972;28;20072;-90
2022/11/25 22:09:36;;;;;;;55.30;30.58;;;;;;;;;;5017976;28;20072;-91
2022/11/25 22:12:04;;;;;;;48.45;28.20;;;;;;;;;;5035419;28;20036;-90
2022/11/25 22:14:36;;;;;;;49.28;28.13;;;;;;;;;;5018045;28;20024;-91
2022/11/25 22:17:14;;;;;;;52.10;28.38;;;;;;;;;;5018002;28;20032;-90
2022/11/25 22:19:40;;;;;;;51.25;29.63;;;;;;;;;;5017715;28;20030;-90
2022/11/25 22:22:11;;;;;;;55.63;31.02;;;;;;;;;;5018026;28;20025;-90
2022/11/25 22:24:37;;;;;;;51.45;29.95;;;;;;;;;;5017708;28;20044;-90
2022/11/25 22:27:06;;;;;;;51.95;29.30;;;;;;;;;;5017692;28;20033;-92
2022/11/25 22:29:33;;;;;;;48.45;28.25;;;;;;;;;;5017995;28;20036;-91
2022/11/25 22:32:00;;;;;;;50.25;29.25;;;;;;;;;;5017882;28;20421;-91
2022/11/25 22:34:26;;;;;;;50.90;28.75;;;;;;;;;;5017670;28;20109;-92
2022/11/25 22:36:52;;;;;;;56.55;31.80;;;;;;;;;;5018231;28;20025;-90
2022/11/25 22:39:22;;;;;;;56.95;32.08;;;;;;;;;;5018538;28;20066;-89
2022/11/25 22:41:51;;;;;;;52.00;30.77;;;;;;;;;;5029982;28;20041;-89
2022/11/25 22:44:23;;;;;;;55.05;31.55;;;;;;;;;;5040195;28;20465;-87
2022/11/25 22:46:49;;;;;;;64.25;32.83;;;;;;;;;;5054723;28;20053;-91
2022/11/25 22:49:27;;;;;;;54.35;30.88;;;;;;;;;;5036946;28;20035;-91
2022/11/25 22:51:54;;;;;;;61.38;32.58;;;;;;;;;;5036918;28;20516;-90
2022/11/25 22:54:24;;;;;;;59.88;33.92;;;;;;;;;;5036993;28;20560;-96
2022/11/25 22:56:50;;;;;;;59.28;32.17;;;;;;;;;;5037051;28;20029;-91
2022/11/25 22:59:16;;;;;;;66.50;36.28;;;;;;;;;;5022961;28;20470;-90
2022/11/25 23:01:42;;;;;;;72.45;37.10;;;;;;;;;;4997339;28;20026;-90
2022/11/25 23:04:14;;;;;;;85.35;43.25;;;;;;;;;;4997516;28;20499;-90
2022/11/25 23:06:41;;;;;;;81.97;41.72;;;;;;;;;;4997409;28;20029;-91
2022/11/25 23:09:12;;;;;;;76.45;39.67;;;;;;;;;;4997146;28;20112;-90
2022/11/25 23:11:38;;;;;;;73.07;37.35;;;;;;;;;;4997244;28;20034;-91
2022/11/25 23:14:04;;;;;;;70.05;34.13;;;;;;;;;;4997258;28;20022;-91
2022/11/25 23:16:30;;;;;;;69.20;35.03;;;;;;;;;;4997731;28;20036;-90
2022/11/25 23:18:56;;;;;;;63.67;33.08;;;;;;;;;;4997222;28;20493;-90
2022/11/25 23:21:24;;;;;;;65.90;35.72;;;;;;;;;;4997270;28;20488;-90
2022/11/25 23:23:51;;;;;;;60.00;33.65;;;;;;;;;;4997384;28;20036;-89
2022/11/25 23:26:17;;;;;;;66.63;34.50;;;;;;;;;;4997283;28;20593;-89
2022/11/25 23:28:43;;;;;;;72.63;35.13;;;;;;;;;;4997147;28;20033;-89
2022/11/25 23:31:11;;;;;;;67.50;35.88;;;;;;;;;;4996979;28;20144;-91
2022/11/25 23:33:38;;;;;;;69.78;36.97;;;;;;;;;;4997294;28;20061;-90
2022/11/25 23:36:17;;;;;;;66.05;34.60;;;;;;;;;;4997051;28;20030;-89
2022/11/25 23:38:49;;;;;;;61.35;32.63;;;;;;;;;;4997222;28;20033;-89
2022/11/25 23:41:18;;;;;;;59.22;32.38;;;;;;;;;;4997219;28;20037;-89
2022/11/25 23:43:44;;;;;;;63.45;32.42;;;;;;;;;;4996949;28;20025;-90
2022/11/25 23:46:13;;;;;;;61.80;31.95;;;;;;;;;;5014484;28;20054;-91
2022/11/25 23:48:39;;;;;;;60.75;32.15;;;;;;;;;;4997318;28;20030;-89
2022/11/25 23:51:06;;;;;;;59.58;32.17;;;;;;;;;;4996694;28;20030;-91
2022/11/25 23:53:33;;;;;;;64.45;34.83;;;;;;;;;;4997176;28;20124;-91
2022/11/25 23:55:59;;;;;;;52.53;28.98;;;;;;;;;;4997670;28;20030;-89
2022/11/25 23:58:25;;;;;;;53.47;28.98;;;;;;;;;;4996956;28;20038;-90
